Sistema su
RaspberryPi



Stato stazione regolare

Ultimi Sismi ITA

Masiera  Masiera


Masiera Torre  Masiera Torre







Raticosa
Muraglione
Fumaiolo

Meteosat

Fulminazioni





Offrimi una birra..

Temporali Inizio validità dal: 26-06-2017 12:00 Fino: 21:30 Allerta per: Temporali Livello: Giallo info button
 

Weather Underground Storia pagina Testo

Quotidiano Riepilogo per Giugno 26, 2017 Unità:  Metrico    Inglese   Entrambi
« Indietro Day
Avanti Day »
Quotidiano Settimanale mensile Annuale Personalizzato
  Attuale: Max: Min: Media:
Temperatura: 24.7 °C 31.7 °C 22.7 °C 24.9 °C
P.to Rugiada: 23.1 °C 23.8 °C 21.1 °C 22 °C
Umidità: 91 % 92 % 62 % 85 %
Vel. Vento: 1.6 km/h 20.9 km/h 0.0 km/h 2.5 km/h
Raffiche: 0.0 km/h 3.2 km/h - -
Vento:SE - - East
Pressione: 1009.4 hPa 1009.4 hPa 1005.6 hPa -
Precipitazioni: 0.0 mm      
Historical Graphs
 
 
Dati di tabella per il Giugno 26, 2017
Tempo Temperatura P.to Rugiada Pressione Vento Vel. Vento Raffiche Umidità Tasso delle precipitazioni (oraria)
00:00 24.7 °C 22.2 °C 1007.0 hPa ESE 3.2 km/h   86 % 0.0 mm
00:05 28.4 °C 22.6 °C 1005.6 hPa ESE 1.6 km/h   71 % 0.0 mm
00:20 27.8 °C 22.5 °C 1005.6 hPa East 3.2 km/h   73 % 0.0 mm
00:25 24.7 °C 22.2 °C 1007.0 hPa ESE 3.2 km/h   86 % 0.0 mm
00:30 25.5 °C 22.0 °C 1006.3 hPa SE 4.8 km/h   81 % 0.0 mm
00:35 30.0 °C 22.7 °C 1005.6 hPa NE 4.8 km/h   65 % 0.0 mm
00:40 25.9 °C 22.0 °C 1006.0 hPa ESE 4.8 km/h   79 % 0.0 mm
00:45 25.9 °C 22.0 °C 1006.0 hPa ESE 4.8 km/h   79 % 0.0 mm
00:50 24.6 °C 22.1 °C 1007.0 hPa ESE 3.2 km/h   86 % 0.0 mm
00:55 31.7 °C 23.5 °C 1005.6 hPa ENE 8.0 km/h   62 % 0.0 mm
01:00 31.7 °C 23.5 °C 1005.6 hPa ENE 8.0 km/h   62 % 0.0 mm
01:05 27.8 °C 22.5 °C 1005.6 hPa East 3.2 km/h   73 % 0.0 mm
01:10 28.4 °C 22.6 °C 1005.6 hPa ESE 1.6 km/h   71 % 0.0 mm
01:20 23.9 °C 21.8 °C 1007.0 hPa Calm     88 % 0.0 mm
01:25 23.9 °C 21.8 °C 1007.0 hPa Calm     88 % 0.0 mm
01:30 24.9 °C 22.2 °C 1007.0 hPa SE 3.2 km/h   85 % 0.0 mm
01:35 27.8 °C 22.5 °C 1005.6 hPa East 3.2 km/h   73 % 0.0 mm
01:40 25.9 °C 22.0 °C 1006.0 hPa ESE 4.8 km/h   79 % 0.0 mm
01:45 25.9 °C 22.0 °C 1006.0 hPa ESE 4.8 km/h   79 % 0.0 mm
01:55 28.4 °C 22.6 °C 1005.6 hPa ESE 1.6 km/h   71 % 0.0 mm
02:05 23.3 °C 21.4 °C 1007.3 hPa Calm     89 % 0.0 mm
02:10 30.0 °C 22.7 °C 1005.6 hPa NE 4.8 km/h   65 % 0.0 mm
02:15 24.4 °C 21.7 °C 1007.3 hPa ESE 1.6 km/h 1.6 km/h 85 % 0.0 mm
02:20 29.1 °C 21.1 °C 1006.7 hPa NW 20.9 km/h   62 % 0.0 mm
02:25 23.9 °C 22.0 °C 1007.0 hPa NNW 1.6 km/h   89 % 0.0 mm
02:30 23.3 °C 21.4 °C 1007.3 hPa ENE 1.6 km/h   89 % 0.0 mm
02:40 23.3 °C 21.4 °C 1007.3 hPa ENE 1.6 km/h   89 % 0.0 mm
02:45 23.9 °C 22.0 °C 1007.0 hPa NNW 1.6 km/h   89 % 0.0 mm
02:50 27.8 °C 22.5 °C 1005.6 hPa East 3.2 km/h   73 % 0.0 mm
03:00 23.5 °C 21.8 °C 1007.7 hPa ESE 1.6 km/h   90 % 0.0 mm
03:05 27.4 °C 21.5 °C 1007.0 hPa NW 14.5 km/h   70 % 0.0 mm
03:10 24.7 °C 22.2 °C 1007.0 hPa ESE 3.2 km/h   86 % 0.0 mm
03:15 27.8 °C 22.5 °C 1005.6 hPa East 3.2 km/h   73 % 0.0 mm
03:20 23.9 °C 22.0 °C 1007.0 hPa NNW 1.6 km/h   89 % 0.0 mm
03:25 27.8 °C 22.5 °C 1005.6 hPa East 3.2 km/h   73 % 0.0 mm
03:30 23.2 °C 21.4 °C 1007.7 hPa Calm     90 % 0.0 mm
03:35 27.8 °C 22.5 °C 1005.6 hPa East 3.2 km/h   73 % 0.0 mm
03:40 23.2 °C 21.4 °C 1007.7 hPa Calm     90 % 0.0 mm
03:45 24.7 °C 22.2 °C 1007.0 hPa ESE 3.2 km/h   86 % 0.0 mm
03:50 27.8 °C 22.5 °C 1005.6 hPa East 3.2 km/h   73 % 0.0 mm
03:55 23.3 °C 21.4 °C 1007.3 hPa ENE 1.6 km/h   89 % 0.0 mm
04:00 27.8 °C 22.5 °C 1005.6 hPa East 3.2 km/h   73 % 0.0 mm
04:10 23.5 °C 21.8 °C 1007.7 hPa ENE 1.6 km/h   90 % 0.0 mm
04:15 23.3 °C 21.4 °C 1007.7 hPa NNE 1.6 km/h   89 % 0.0 mm
04:20 24.7 °C 22.2 °C 1007.0 hPa ESE 3.2 km/h   86 % 0.0 mm
04:25 23.3 °C 21.4 °C 1007.7 hPa NNE 1.6 km/h   89 % 0.0 mm
04:30 23.3 °C 21.4 °C 1007.7 hPa NNE 1.6 km/h   89 % 0.0 mm
04:40 23.5 °C 21.8 °C 1007.7 hPa ENE 1.6 km/h   90 % 0.0 mm
04:45 27.8 °C 22.5 °C 1005.6 hPa East 3.2 km/h   73 % 0.0 mm
04:50 23.3 °C 21.4 °C 1007.3 hPa ENE 1.6 km/h   89 % 0.0 mm
04:55 23.9 °C 22.0 °C 1007.0 hPa NNW 1.6 km/h   89 % 0.0 mm
05:00 23.1 °C 21.7 °C 1008.0 hPa NNE 3.2 km/h 3.2 km/h 92 % 0.0 mm
05:10 23.3 °C 21.4 °C 1007.7 hPa NNE 1.6 km/h   89 % 0.0 mm
05:15 23.3 °C 21.8 °C 1007.7 hPa ENE 1.6 km/h 1.6 km/h 91 % 0.0 mm
05:20 22.7 °C 21.2 °C 1008.4 hPa Calm     91 % 0.0 mm
05:25 23.3 °C 21.4 °C 1007.7 hPa NNE 1.6 km/h   89 % 0.0 mm
05:30 23.2 °C 21.4 °C 1007.7 hPa Calm     90 % 0.0 mm
05:35 23.4 °C 21.8 °C 1008.0 hPa Calm   3.2 km/h 91 % 0.0 mm
05:40 24.7 °C 22.2 °C 1007.0 hPa ESE 3.2 km/h   86 % 0.0 mm
05:50 23.2 °C 21.4 °C 1007.7 hPa Calm     90 % 0.0 mm
06:00 23.2 °C 21.4 °C 1007.7 hPa Calm     90 % 0.0 mm
06:05 23.4 °C 22.0 °C 1008.4 hPa NNE 1.6 km/h   92 % 0.0 mm
06:10 23.4 °C 22.0 °C 1008.4 hPa NNE 1.6 km/h   92 % 0.0 mm
06:20 23.3 °C 21.4 °C 1007.7 hPa NNE 1.6 km/h   89 % 0.0 mm
06:25 24.7 °C 22.2 °C 1007.0 hPa ESE 3.2 km/h   86 % 0.0 mm
06:30 23.4 °C 22.0 °C 1008.4 hPa NNE 1.6 km/h   92 % 0.0 mm
06:40 23.1 °C 21.7 °C 1008.0 hPa NNE 3.2 km/h   92 % 0.0 mm
06:45 23.4 °C 22.0 °C 1008.0 hPa ENE 1.6 km/h   92 % 0.0 mm
06:50 23.4 °C 22.0 °C 1008.0 hPa ENE 1.6 km/h   92 % 0.0 mm
06:55 23.3 °C 21.4 °C 1007.7 hPa NNE 1.6 km/h   89 % 0.0 mm
07:05 23.4 °C 22.0 °C 1008.4 hPa ENE 1.6 km/h   92 % 0.0 mm
07:10 23.4 °C 22.0 °C 1008.0 hPa ENE 1.6 km/h   92 % 0.0 mm
07:15 23.4 °C 22.0 °C 1008.4 hPa NNE 1.6 km/h   92 % 0.0 mm
07:20 24.0 °C 22.4 °C 1008.7 hPa Calm     91 % 0.0 mm
07:30 23.2 °C 21.4 °C 1007.7 hPa Calm     90 % 0.0 mm
07:40 22.7 °C 21.2 °C 1008.4 hPa Calm     91 % 0.0 mm
07:45 23.2 °C 21.4 °C 1007.7 hPa Calm     90 % 0.0 mm
07:50 23.1 °C 21.7 °C 1008.0 hPa NNE 3.2 km/h   92 % 0.0 mm
07:55 23.4 °C 22.0 °C 1008.0 hPa ENE 1.6 km/h   92 % 0.0 mm
08:00 24.7 °C 22.2 °C 1007.0 hPa ESE 3.2 km/h   86 % 0.0 mm
08:05 24.7 °C 23.1 °C 1009.4 hPa ESE 1.6 km/h   91 % 0.0 mm
08:10 23.8 °C 22.2 °C 1008.4 hPa Calm     91 % 0.0 mm
08:20 24.2 °C 22.6 °C 1008.7 hPa Calm     91 % 0.0 mm
08:25 23.4 °C 22.0 °C 1008.4 hPa NNE 1.6 km/h   92 % 0.0 mm
08:30 23.8 °C 22.2 °C 1008.4 hPa Calm     91 % 0.0 mm
08:35 24.7 °C 22.2 °C 1007.0 hPa ESE 3.2 km/h   86 % 0.0 mm
08:45 25.8 °C 23.8 °C 1009.4 hPa NE 1.6 km/h 1.6 km/h 89 % 0.0 mm
08:50 24.7 °C 23.1 °C 1009.4 hPa SE 1.6 km/h   91 % 0.0 mm
meteomasiera
complimenti di Weather Underground - 3 mb

Script sviluppato da  Jim McMurry - jmcmurry@mwt.net Adattato per il modello da  Wim van der Kuil - Leuven-Template.eu



meteomasiera trasmette i dati della propria stazione in tempo reale su:



...e altri

free counters